Time;durP1;ratioP1;P1;durP2;ratioP2;P2;SDS_P1;SDS_P2;PMS_P1;PMS_P2;Temp;Humidity;BMP_temperature;BMP_pressure;BME280_temperature;BME280_humidity;BME280_pressure;Samples;Min_cycle;Max_cycle;Signal;HPM_P1;HPM_P2
2022/07/13 00:02:51;;;;;;;3.08;1.75;;;14.50;99.90;;;;;;10122531;29;20064;-88
2022/07/13 00:07:52;;;;;;;4.40;1.90;;;14.40;99.90;;;;;;10089378;29;20168;-88
2022/07/13 00:12:52;;;;;;;3.40;1.85;;;14.30;99.90;;;;;;10097383;29;20463;-91
2022/07/13 00:17:53;;;;;;;3.88;1.88;;;14.20;99.90;;;;;;10096005;29;20037;-91
2022/07/13 00:22:54;;;;;;;6.22;2.38;;;14.10;99.90;;;;;;10091507;29;20041;-92
2022/07/13 00:27:55;;;;;;;4.25;2.13;;;14.00;99.90;;;;;;10101698;29;20055;-89
2022/07/13 00:32:56;;;;;;;2.83;1.55;;;13.90;99.90;;;;;;10107723;29;20445;-89
2022/07/13 00:37:56;;;;;;;2.50;1.50;;;13.70;99.90;;;;;;10097627;29;20031;-88
2022/07/13 00:42:57;;;;;;;4.00;1.95;;;13.70;99.90;;;;;;10089706;29;20545;-89
2022/07/13 00:47:58;;;;;;;3.47;1.70;;;13.90;99.90;;;;;;10108082;29;20075;-88
2022/07/13 00:52:59;;;;;;;3.83;1.50;;;14.10;99.90;;;;;;10086715;29;20032;-89
2022/07/13 00:58:00;;;;;;;1.98;1.20;;;14.30;99.90;;;;;;10088767;29;20564;-90
2022/07/13 01:03:00;;;;;;;4.40;1.67;;;14.40;99.90;;;;;;10100718;29;20033;-89
2022/07/13 01:08:04;;;;;;;4.28;1.73;;;14.50;99.90;;;;;;10078333;29;20036;-87
2022/07/13 01:13:09;;;;;;;1.92;1.35;;;14.40;99.90;;;;;;10074275;29;20077;-87
2022/07/13 01:18:13;;;;;;;5.10;1.70;;;14.40;99.90;;;;;;10096765;29;20037;-87
2022/07/13 01:23:17;;;;;;;2.88;1.52;;;14.40;99.90;;;;;;10073559;29;20706;-88
2022/07/13 01:28:17;;;;;;;3.38;1.42;;;14.40;99.90;;;;;;10087438;29;20059;-90
2022/07/13 01:33:18;;;;;;;1.83;1.42;;;14.30;99.90;;;;;;10105171;29;20048;-88
2022/07/13 01:38:20;;;;;;;2.40;1.55;;;14.20;99.90;;;;;;10117635;29;20675;-88
2022/07/13 01:43:26;;;;;;;2.35;1.48;;;14.10;99.90;;;;;;10074613;29;20034;-88
2022/07/13 01:48:27;;;;;;;5.28;2.00;;;14.00;99.90;;;;;;10099168;29;20056;-88
2022/07/13 01:53:28;;;;;;;1.60;1.42;;;14.00;99.90;;;;;;10082080;29;20051;-89
2022/07/13 01:58:28;;;;;;;4.88;1.90;;;13.90;99.90;;;;;;10085848;29;20466;-88
2022/07/13 02:03:32;;;;;;;3.58;1.60;;;13.90;99.90;;;;;;10097009;29;20028;-88
2022/07/13 02:08:33;;;;;;;5.15;1.35;;;13.90;99.90;;;;;;10108934;23;20101;-88
2022/07/13 02:13:33;;;;;;;2.88;1.58;;;13.80;99.90;;;;;;10123854;29;20553;-89
2022/07/13 02:18:34;;;;;;;3.63;1.40;;;13.80;99.90;;;;;;10108335;29;20516;-88
2022/07/13 02:23:35;;;;;;;3.95;2.13;;;13.80;99.90;;;;;;10127001;29;20075;-88
2022/07/13 02:28:35;;;;;;;3.13;1.45;;;13.70;99.90;;;;;;10112441;29;20037;-87
2022/07/13 02:33:37;;;;;;;3.63;1.60;;;13.70;99.90;;;;;;10130375;29;20036;-87
2022/07/13 02:38:37;;;;;;;4.28;1.50;;;13.60;99.90;;;;;;10125427;29;20029;-88
2022/07/13 02:43:38;;;;;;;2.22;1.58;;;13.60;99.90;;;;;;10125050;29;20040;-88
2022/07/13 02:48:39;;;;;;;2.53;1.80;;;13.50;99.90;;;;;;10107874;29;20508;-90
2022/07/13 02:53:39;;;;;;;2.97;1.85;;;13.50;99.90;;;;;;10113457;29;20044;-90
2022/07/13 02:58:40;;;;;;;3.47;2.03;;;13.50;99.90;;;;;;10111008;29;20028;-90
2022/07/13 03:03:40;;;;;;;2.60;1.95;;;13.60;99.90;;;;;;10112222;29;20032;-87
2022/07/13 03:08:41;;;;;;;4.82;1.80;;;13.60;99.90;;;;;;10124343;29;20063;-88
2022/07/13 03:13:41;;;;;;;2.30;2.00;;;13.60;99.90;;;;;;10111148;29;20525;-89
2022/07/13 03:18:42;;;;;;;4.07;2.00;;;13.60;99.90;;;;;;10105346;29;20095;-88
2022/07/13 03:23:43;;;;;;;4.18;1.63;;;13.60;99.90;;;;;;10128183;29;20552;-89
2022/07/13 03:28:43;;;;;;;2.75;1.98;;;13.70;99.90;;;;;;10107119;29;20044;-88
2022/07/13 03:33:44;;;;;;;3.47;2.00;;;13.70;99.90;;;;;;10110913;29;20032;-88
2022/07/13 03:38:45;;;;;;;5.82;2.30;;;13.70;99.90;;;;;;10111438;29;20039;-88
2022/07/13 03:43:46;;;;;;;3.90;1.83;;;13.80;99.90;;;;;;10123782;29;20554;-90
2022/07/13 03:48:46;;;;;;;4.18;2.03;;;13.80;99.90;;;;;;10122684;29;20100;-88
2022/07/13 03:53:47;;;;;;;2.20;1.92;;;13.80;99.90;;;;;;10126081;29;20052;-87
2022/07/13 03:58:47;;;;;;;3.25;2.03;;;13.90;99.90;;;;;;10110255;29;20123;-86
2022/07/13 04:09:54;;;;;;;3.78;1.98;;;14.10;99.90;;;;;;10112169;29;20057;-87
2022/07/13 04:15:43;;;;;;;3.25;1.73;;;14.30;99.90;;;;;;10116798;29;20131;-87
2022/07/13 04:20:19;;;;;;;2.20;1.95;;;14.40;99.90;;;;;;10103515;29;20159;-88
2022/07/13 04:25:29;;;;;;;3.03;2.15;;;14.50;99.90;;;;;;10100070;29;20401;-90
2022/07/13 04:30:51;;;;;;;6.57;2.40;;;14.60;99.90;;;;;;10098306;29;20048;-88
2022/07/13 04:35:52;;;;;;;4.45;1.90;;;14.70;99.90;;;;;;10114427;24;20097;-87
2022/07/13 04:40:53;;;;;;;3.85;1.98;;;14.80;99.90;;;;;;10111917;29;20140;-89
2022/07/13 04:45:53;;;;;;;2.38;2.03;;;14.90;99.90;;;;;;10097801;29;20056;-87
2022/07/13 04:56:55;;;;;;;3.20;1.98;;;15.20;99.90;;;;;;10123327;29;20036;-88
2022/07/13 05:08:48;;;;;;;3.17;2.10;;;15.60;99.90;;;;;;10115918;29;20104;-89
2022/07/13 05:14:13;;;;;;;2.97;2.00;;;15.80;99.90;;;;;;10093184;29;20041;-91
2022/07/13 05:19:13;;;;;;;2.88;1.92;;;16.00;99.90;;;;;;10069629;29;20044;-88
2022/07/13 05:24:43;;;;;;;2.17;1.88;;;16.20;99.90;;;;;;10087841;29;20496;-87
2022/07/13 05:29:44;;;;;;;3.33;1.90;;;16.40;99.90;;;;;;10081344;29;20498;-85
2022/07/13 05:34:44;;;;;;;3.70;1.85;;;16.60;99.90;;;;;;10082675;29;20107;-86
2022/07/13 05:40:01;;;;;;;3.20;2.00;;;16.80;99.90;;;;;;10091334;29;20040;-84
2022/07/13 05:45:02;;;;;;;3.42;2.05;;;16.90;99.90;;;;;;10039560;29;20076;-86
2022/07/13 05:50:04;;;;;;;2.72;1.88;;;17.10;99.90;;;;;;10036200;29;20053;-88
2022/07/13 05:55:23;;;;;;;4.95;1.90;;;17.30;99.90;;;;;;10034174;29;20490;-87
2022/07/13 06:00:38;;;;;;;2.00;1.65;;;17.40;99.90;;;;;;10053342;29;20053;-85
2022/07/13 06:05:39;;;;;;;4.03;1.70;;;17.60;99.90;;;;;;10037109;29;20049;-85
2022/07/13 06:11:30;;;;;;;4.25;2.60;;;17.80;99.90;;;;;;10051881;29;20054;-87
2022/07/13 06:16:37;;;;;;;3.88;1.83;;;18.00;99.90;;;;;;9949632;29;20041;-85
2022/07/13 06:21:37;;;;;;;1.95;1.60;;;18.20;99.90;;;;;;9958159;29;20193;-88
2022/07/13 06:27:33;;;;;;;2.75;1.88;;;18.30;99.90;;;;;;9965727;29;20103;-86
2022/07/13 06:32:37;;;;;;;2.05;1.58;;;18.50;99.90;;;;;;9971321;29;20418;-88
2022/07/13 06:38:16;;;;;;;1.60;1.40;;;18.70;99.90;;;;;;10059231;29;20442;-85
2022/07/13 06:43:16;;;;;;;2.90;1.55;;;18.90;99.90;;;;;;10093483;29;20032;-88
2022/07/13 06:48:17;;;;;;;5.78;1.88;;;19.00;99.90;;;;;;10086843;29;20041;-85
2022/07/13 06:53:18;;;;;;;2.38;1.27;;;19.20;99.90;;;;;;10109433;29;20087;-85
2022/07/13 06:58:19;;;;;;;2.30;1.30;;;19.60;99.90;;;;;;10099829;29;20041;-85
2022/07/13 07:03:19;;;;;;;2.33;1.17;;;20.80;99.90;;;;;;10107381;29;20485;-88
2022/07/13 07:08:20;;;;;;;1.70;1.50;;;22.20;96.30;;;;;;10100100;29;20128;-89
2022/07/13 07:13:21;;;;;;;1.48;1.35;;;23.50;94.20;;;;;;10112826;29;20043;-87
2022/07/13 07:24:18;;;;;;;1.05;0.90;;;24.70;87.90;;;;;;10089504;29;20052;-88
2022/07/13 07:29:19;;;;;;;1.85;1.13;;;25.20;85.80;;;;;;10087940;29;20037;-87
2022/07/13 07:34:20;;;;;;;4.70;1.52;;;25.50;82.20;;;;;;10062338;29;20152;-88
2022/07/13 07:39:20;;;;;;;2.08;1.17;;;25.40;81.60;;;;;;10091539;29;20465;-89
2022/07/13 07:44:22;;;;;;;2.22;1.10;;;25.50;80.60;;;;;;10081357;29;20033;-89
2022/07/13 07:49:22;;;;;;;1.48;1.30;;;25.70;83.00;;;;;;10087553;29;20045;-89
2022/07/13 07:54:23;;;;;;;2.30;1.48;;;25.50;80.00;;;;;;10081079;29;20033;-85
2022/07/13 07:59:26;;;;;;;2.85;1.50;;;24.80;81.60;;;;;;10081993;29;20036;-87
2022/07/13 08:04:26;;;;;;;3.80;1.60;;;24.20;83.00;;;;;;10106117;29;20631;-87
2022/07/13 08:09:27;;;;;;;2.33;1.20;;;24.00;83.20;;;;;;10106881;29;20032;-84
2022/07/13 08:14:28;;;;;;;1.95;1.15;;;24.10;85.60;;;;;;10088507;29;20029;-87
2022/07/13 08:19:29;;;;;;;2.13;1.10;;;24.20;82.80;;;;;;10080773;29;20032;-86
2022/07/13 08:24:30;;;;;;;2.72;1.08;;;24.10;83.40;;;;;;10104086;29;20367;-87
2022/07/13 08:29:30;;;;;;;1.95;0.90;;;24.20;84.00;;;;;;10082218;29;20120;-84
2022/07/13 08:39:50;;;;;;;2.53;1.25;;;24.40;82.60;;;;;;10086362;29;20041;-85
2022/07/13 08:44:51;;;;;;;2.75;1.10;;;24.70;81.40;;;;;;10081017;29;20042;-88
2022/07/13 08:49:53;;;;;;;5.35;1.00;;;24.80;80.40;;;;;;10080422;29;20212;-83
2022/07/13 08:54:54;;;;;;;1.83;1.20;;;24.80;79.20;;;;;;10085645;29;20045;-87
2022/07/13 08:59:55;;;;;;;1.60;1.20;;;24.90;80.00;;;;;;10071192;29;20029;-85
2022/07/13 09:04:55;;;;;;;1.88;1.15;;;25.00;78.20;;;;;;10083360;29;20025;-85
2022/07/13 09:09:56;;;;;;;9.88;1.73;;;25.20;77.90;;;;;;10083555;29;20176;-85
2022/07/13 09:15:00;;;;;;;1.92;1.10;;;25.40;76.80;;;;;;10107813;29;20021;-85
2022/07/13 09:20:10;;;;;;;1.13;1.02;;;25.20;75.40;;;;;;10090048;29;20112;-84
2022/07/13 09:25:14;;;;;;;1.50;0.80;;;25.40;76.40;;;;;;10068831;29;20028;-85
2022/07/13 09:30:25;;;;;;;0.93;0.70;;;25.80;77.50;;;;;;10074214;29;20044;-86
2022/07/13 09:35:47;;;;;;;1.45;1.10;;;26.00;76.00;;;;;;10083033;29;20057;-85
2022/07/13 09:40:48;;;;;;;1.20;0.70;;;26.10;73.50;;;;;;10106490;29;20620;-84
2022/07/13 09:52:29;;;;;;;;;;;;;;;;;;;;;
2022/07/13 10:09:13;;;;;;;1.52;0.60;;;27.10;72.40;;;;;;10085503;29;20037;-84
2022/07/13 10:14:57;;;;;;;0.70;0.60;;;27.30;69.90;;;;;;10042811;29;20033;-84
2022/07/13 10:20:33;;;;;;;2.83;0.90;;;27.40;68.70;;;;;;10038445;29;20124;-84
2022/07/13 10:25:44;;;;;;;0.85;0.68;;;27.30;70.00;;;;;;10047830;29;20080;-85
2022/07/13 10:30:45;;;;;;;2.17;0.82;;;27.30;69.80;;;;;;10061470;29;20077;-86
2022/07/13 10:36:23;;;;;;;1.25;0.63;;;27.20;68.20;;;;;;10034402;29;20057;-86
2022/07/13 10:41:29;;;;;;;2.25;0.75;;;27.20;68.60;;;;;;10050608;29;20073;-84
2022/07/13 10:59:35;;;;;;;1.58;0.60;;;27.70;65.50;;;;;;10086680;29;20478;-86
2022/07/13 11:11:12;;;;;;;1.25;0.70;;;27.30;65.50;;;;;;10074378;29;20041;-87
2022/07/13 11:16:13;;;;;;;0.65;0.57;;;27.40;68.30;;;;;;10085117;29;20037;-86
2022/07/13 11:22:10;;;;;;;2.53;0.77;;;27.10;66.80;;;;;;10084928;29;20033;-87
2022/07/13 11:27:23;;;;;;;0.60;0.60;;;26.90;68.50;;;;;;10085034;29;20051;-89
2022/07/13 11:38:36;;;;;;;0.90;0.57;;;26.80;70.90;;;;;;11785919;23;20020;-84
2022/07/13 12:06:05;;;;;;;1.63;0.90;;;27.80;69.80;;;;;;11944446;23;20209;-86
2022/07/13 12:17:03;;;;;;;3.72;1.17;;;28.30;66.40;;;;;;10192677;23;20062;-83
2022/07/13 12:28:10;;;;;;;16.33;10.65;;;28.40;65.70;;;;;;10046410;29;20053;-86
2022/07/13 12:33:11;;;;;;;10.00;5.95;;;27.80;66.80;;;;;;10049697;29;20109;-82
2022/07/13 12:38:49;;;;;;;4.63;2.55;;;27.40;70.10;;;;;;10048340;29;20439;-83
2022/07/13 12:43:55;;;;;;;1.67;0.80;;;27.10;67.60;;;;;;10046484;29;20048;-83
2022/07/13 12:49:28;;;;;;;12.38;6.63;;;26.70;68.50;;;;;;10038890;29;20040;-85
2022/07/13 13:00:26;;;;;;;4.57;2.13;;;26.60;71.70;;;;;;9970021;29;20505;-86
2022/07/13 13:05:27;;;;;;;11.40;6.68;;;26.60;69.30;;;;;;10047067;29;20048;-88
2022/07/13 13:10:30;;;;;;;6.07;4.93;;;26.80;71.20;;;;;;10048482;29;20121;-83
2022/07/13 13:15:31;;;;;;;2.53;1.25;;;26.70;70.20;;;;;;10047383;29;20066;-82
2022/07/13 13:20:31;;;;;;;5.60;4.00;;;27.10;70.50;;;;;;10047660;29;20049;-83
2022/07/13 13:25:33;;;;;;;7.60;5.15;;;27.40;69.40;;;;;;10045132;29;20034;-85
2022/07/13 13:30:45;;;;;;;6.35;5.07;;;27.80;71.00;;;;;;10027602;29;20573;-85
2022/07/13 13:35:46;;;;;;;2.90;1.60;;;28.50;67.10;;;;;;10047349;29;20044;-84
2022/07/13 13:46:44;;;;;;;3.15;2.60;;;28.80;63.70;;;;;;10046031;29;20088;-86
2022/07/13 13:51:46;;;;;;;1.45;1.10;;;28.40;66.50;;;;;;10044273;29;20430;-85
2022/07/13 13:56:50;;;;;;;4.50;2.40;;;28.30;66.20;;;;;;10044610;29;20061;-82
2022/07/13 14:01:51;;;;;;;4.43;2.00;;;28.30;67.20;;;;;;10033525;29;20053;-84
2022/07/13 14:06:51;;;;;;;1.52;0.98;;;28.50;65.40;;;;;;10046771;29;20470;-83
2022/07/13 14:11:59;;;;;;;3.15;1.00;;;28.50;65.80;;;;;;10043739;29;20470;-82
2022/07/13 14:16:59;;;;;;;1.50;1.20;;;28.60;66.00;;;;;;10025739;29;20505;-82
2022/07/13 14:22:00;;;;;;;1.70;0.85;;;28.80;65.80;;;;;;10053257;29;20072;-82
2022/07/13 14:27:00;;;;;;;1.10;1.00;;;28.80;64.90;;;;;;10052626;29;20124;-83
2022/07/13 14:32:02;;;;;;;2.85;1.50;;;28.80;65.80;;;;;;10053642;29;20033;-86
2022/07/13 14:37:06;;;;;;;5.45;1.23;;;28.70;64.80;;;;;;10043272;29;20036;-83
2022/07/13 14:42:07;;;;;;;1.10;1.00;;;28.60;64.80;;;;;;10053353;29;20597;-84
2022/07/13 14:47:08;;;;;;;2.17;0.93;;;28.20;65.50;;;;;;10048671;29;20041;-83
2022/07/13 14:52:08;;;;;;;5.93;4.53;;;28.20;66.20;;;;;;10051815;29;20048;-84
2022/07/13 14:57:09;;;;;;;2.42;0.98;;;28.10;66.20;;;;;;10034990;29;20133;-83
2022/07/13 15:02:10;;;;;;;0.73;0.73;;;28.10;66.30;;;;;;10048381;29;20501;-83
2022/07/13 15:07:10;;;;;;;5.47;2.65;;;27.90;65.20;;;;;;10028312;29;20030;-82
2022/07/13 15:12:11;;;;;;;2.97;1.55;;;27.70;66.70;;;;;;10035901;29;20034;-87
2022/07/13 15:17:11;;;;;;;1.90;1.70;;;27.70;67.80;;;;;;10051784;29;20085;-85
2022/07/13 15:22:12;;;;;;;1.25;1.00;;;27.80;66.70;;;;;;10052183;29;20783;-83
2022/07/13 15:27:13;;;;;;;1.25;0.95;;;27.80;65.90;;;;;;10049038;29;20514;-86
2022/07/13 15:32:14;;;;;;;5.13;1.00;;;27.80;67.20;;;;;;10047882;29;20044;-85
2022/07/13 15:37:15;;;;;;;1.35;1.15;;;27.80;67.40;;;;;;10051290;29;20060;-84
2022/07/13 15:42:15;;;;;;;1.40;1.30;;;27.70;65.70;;;;;;10050874;29;20040;-84
2022/07/13 15:47:16;;;;;;;1.30;1.20;;;27.40;66.20;;;;;;10048207;29;20048;-83
2022/07/13 15:52:16;;;;;;;1.58;1.17;;;27.00;66.20;;;;;;10033306;29;20415;-86
2022/07/13 15:57:17;;;;;;;0.90;0.90;;;26.80;67.30;;;;;;10046611;29;20029;-83
2022/07/13 16:02:17;;;;;;;1.40;1.30;;;26.80;69.70;;;;;;10027539;29;20563;-83
2022/07/13 16:07:18;;;;;;;1.55;1.45;;;26.60;69.60;;;;;;10045400;29;20065;-84
2022/07/13 16:12:19;;;;;;;3.65;1.73;;;26.50;70.80;;;;;;10043303;29;20025;-84
2022/07/13 16:17:19;;;;;;;2.38;1.40;;;26.40;69.70;;;;;;10048359;29;21124;-83
2022/07/13 16:22:20;;;;;;;8.25;3.38;;;26.20;70.30;;;;;;10021746;29;20037;-84
2022/07/13 16:27:20;;;;;;;4.72;3.08;;;26.20;70.60;;;;;;10029843;29;20098;-83
2022/07/13 16:32:21;;;;;;;3.25;1.50;;;26.20;70.30;;;;;;10034831;29;20495;-85
2022/07/13 16:37:22;;;;;;;3.80;2.50;;;26.20;71.30;;;;;;10044481;29;20040;-85
2022/07/13 16:42:22;;;;;;;1.40;1.30;;;26.30;70.10;;;;;;10037569;29;20048;-83
2022/07/13 16:47:24;;;;;;;3.92;2.33;;;26.40;70.10;;;;;;10039144;29;20391;-84
2022/07/13 16:52:26;;;;;;;1.85;1.40;;;26.40;70.10;;;;;;10031275;29;20025;-86
2022/07/13 16:57:27;;;;;;;3.25;1.63;;;26.30;68.00;;;;;;10042642;29;20526;-86
2022/07/13 17:02:27;;;;;;;2.35;1.77;;;26.20;70.40;;;;;;10039416;29;20085;-85
2022/07/13 17:07:28;;;;;;;1.63;1.05;;;26.00;70.50;;;;;;10032889;29;20038;-84
2022/07/13 17:12:29;;;;;;;1.67;1.17;;;25.90;71.10;;;;;;10040568;29;20116;-84
2022/07/13 17:17:30;;;;;;;4.20;1.80;;;25.70;70.40;;;;;;10046858;29;20506;-82
2022/07/13 17:22:44;;;;;;;1.73;1.50;;;25.40;71.50;;;;;;10021453;29;20124;-85
2022/07/13 17:33:26;;;;;;;1.50;1.40;;;24.90;72.80;;;;;;10044662;29;20049;-87
2022/07/13 17:38:26;;;;;;;2.38;1.50;;;24.50;78.30;;;;;;10034758;29;20422;-87
2022/07/13 17:43:28;;;;;;;1.80;1.33;;;24.10;78.80;;;;;;10038913;29;20037;-87
2022/07/13 17:48:43;;;;;;;3.58;1.33;;;23.60;79.80;;;;;;10021758;29;20082;-88
2022/07/13 17:53:45;;;;;;;;;;;23.20;81.20;;;;;;10032434;29;20026;-86
2022/07/13 17:58:47;;;;;;;1.95;1.58;;;22.90;81.80;;;;;;10036818;29;19923;-84
2022/07/13 18:03:47;;;;;;;3.65;1.92;;;22.70;82.20;;;;;;10045434;29;20061;-84
2022/07/13 18:08:48;;;;;;;2.75;1.90;;;22.40;83.40;;;;;;10036661;29;20101;-87
2022/07/13 18:13:50;;;;;;;2.35;1.85;;;22.20;84.20;;;;;;10039771;29;20042;-84
2022/07/13 18:18:50;;;;;;;3.10;1.70;;;22.00;85.80;;;;;;10051943;29;20057;-83
2022/07/13 18:23:51;;;;;;;2.65;1.70;;;21.90;85.60;;;;;;10040748;29;20032;-84
2022/07/13 18:28:52;;;;;;;2.83;1.77;;;21.70;86.10;;;;;;10051033;29;20108;-83
2022/07/13 18:33:53;;;;;;;4.20;1.60;;;21.60;85.10;;;;;;10048346;29;20029;-84
2022/07/13 18:38:53;;;;;;;3.33;1.48;;;21.40;85.30;;;;;;10052592;29;20116;-85
2022/07/13 18:43:54;;;;;;;2.03;1.67;;;21.20;86.00;;;;;;10050488;29;20482;-84
2022/07/13 18:48:55;;;;;;;4.82;2.28;;;21.00;86.40;;;;;;10055339;29;20064;-83
2022/07/13 18:53:55;;;;;;;8.68;2.50;;;20.90;87.00;;;;;;10050730;29;20037;-83
2022/07/13 18:58:57;;;;;;;4.43;2.90;;;20.70;87.50;;;;;;10049098;29;20113;-84
2022/07/13 19:03:59;;;;;;;5.30;3.13;;;20.60;90.00;;;;;;10050347;29;20043;-84
2022/07/13 19:09:00;;;;;;;9.25;4.20;;;20.50;90.10;;;;;;10049498;29;20081;-83
2022/07/13 19:14:01;;;;;;;7.32;4.43;;;20.50;90.70;;;;;;10054681;29;20040;-84
2022/07/13 19:19:03;;;;;;;11.13;5.32;;;20.40;90.30;;;;;;10035375;29;20061;-85
2022/07/13 19:24:22;;;;;;;6.55;4.13;;;20.40;90.30;;;;;;10049719;29;20170;-83
2022/07/13 19:29:23;;;;;;;11.77;5.30;;;20.40;91.30;;;;;;10049380;29;20046;-84
2022/07/13 19:34:23;;;;;;;11.02;4.15;;;20.40;90.80;;;;;;10048439;29;20037;-83
2022/07/13 19:39:24;;;;;;;9.07;4.47;;;20.50;90.50;;;;;;10049274;29;20055;-83
2022/07/13 19:44:25;;;;;;;7.28;4.00;;;20.50;90.90;;;;;;10044422;29;20116;-84
2022/07/13 19:49:26;;;;;;;6.03;3.47;;;20.50;90.60;;;;;;10039917;29;20037;-84
2022/07/13 19:54:29;;;;;;;9.73;4.70;;;20.50;90.40;;;;;;10033095;29;20029;-86
2022/07/13 19:59:29;;;;;;;36.10;29.77;;;20.50;91.00;;;;;;10043549;29;20494;-83
2022/07/13 20:04:31;;;;;;;8.55;4.63;;;20.50;91.30;;;;;;10037462;29;20037;-85
2022/07/13 20:09:32;;;;;;;8.30;4.60;;;20.40;91.40;;;;;;10026085;29;20454;-83
2022/07/13 20:14:33;;;;;;;12.07;5.93;;;20.40;92.10;;;;;;10023727;29;20026;-83
2022/07/13 20:19:36;;;;;;;14.38;6.15;;;20.30;91.90;;;;;;10042522;29;20057;-87
2022/07/13 20:24:37;;;;;;;12.25;5.97;;;20.40;92.20;;;;;;10023858;29;20041;-88
2022/07/13 20:29:37;;;;;;;10.15;5.82;;;20.40;92.00;;;;;;10031224;29;20439;-83
2022/07/13 20:34:38;;;;;;;13.27;6.25;;;20.40;91.80;;;;;;10042595;29;20030;-82
2022/07/13 20:39:39;;;;;;;14.35;6.28;;;20.30;92.40;;;;;;10031820;29;20029;-83
2022/07/13 20:44:40;;;;;;;11.38;6.55;;;20.30;92.20;;;;;;10048176;29;20502;-83
2022/07/13 20:49:41;;;;;;;742.72;69.50;;;20.20;92.30;;;;;;10049036;29;20079;-82
2022/07/13 20:54:41;;;;;;;15.55;7.82;;;20.20;92.60;;;;;;10048351;29;20515;-83
2022/07/13 20:59:42;;;;;;;17.10;10.15;;;20.10;92.70;;;;;;10043818;29;20033;-84
2022/07/13 21:04:43;;;;;;;12.57;7.68;;;20.10;93.20;;;;;;10047822;29;20041;-83
2022/07/13 21:09:43;;;;;;;8.93;6.35;;;20.00;93.40;;;;;;10048010;29;20105;-83
2022/07/13 21:14:44;;;;;;;9.77;5.15;;;20.00;93.70;;;;;;10022531;29;20034;-83
2022/07/13 21:19:45;;;;;;;10.05;5.20;;;20.00;93.10;;;;;;10048400;29;20203;-83
2022/07/13 21:24:45;;;;;;;6.65;4.30;;;20.00;93.40;;;;;;10046259;29;20103;-85
2022/07/13 21:29:46;;;;;;;5.32;3.47;;;20.00;93.60;;;;;;10044000;29;20048;-83
2022/07/13 21:34:46;;;;;;;8.15;4.50;;;19.90;93.90;;;;;;10041738;29;20072;-83
2022/07/13 21:39:47;;;;;;;5.00;1.70;;;19.90;94.40;;;;;;10030459;29;20029;-83
2022/07/13 21:44:47;;;;;;;151.65;76.88;;;19.90;94.10;;;;;;10044209;29;20109;-85
2022/07/13 21:49:48;;;;;;;112.50;105.25;;;20.00;94.10;;;;;;10047322;29;20134;-82
2022/07/13 21:54:48;;;;;;;69.85;62.67;;;20.00;94.90;;;;;;10045385;29;20128;-86
2022/07/13 21:59:49;;;;;;;6.03;3.78;;;19.90;94.30;;;;;;10041553;29;20042;-84
2022/07/13 22:05:15;;;;;;;7.40;3.30;;;19.90;94.70;;;;;;10047377;29;20034;-86
2022/07/13 22:10:54;;;;;;;9.60;4.55;;;19.90;95.30;;;;;;10045347;29;20072;-83
2022/07/13 22:16:32;;;;;;;9.18;4.00;;;19.90;95.90;;;;;;10040047;29;20376;-86
2022/07/13 22:22:10;;;;;;;8.27;4.15;;;19.90;95.20;;;;;;10044161;29;20082;-83
2022/07/13 22:27:48;;;;;;;6.63;3.42;;;19.80;94.60;;;;;;10044245;29;20073;-83
2022/07/13 22:33:26;;;;;;;9.43;4.30;;;19.60;94.90;;;;;;10043502;29;20085;-83
2022/07/13 22:39:04;;;;;;;8.63;4.15;;;19.40;95.10;;;;;;10046750;29;20033;-84
2022/07/13 22:44:42;;;;;;;10.02;4.03;;;19.20;95.90;;;;;;10053364;29;20037;-82
2022/07/13 22:50:20;;;;;;;9.02;4.43;;;19.00;96.00;;;;;;10051662;29;20078;-83
2022/07/13 22:55:58;;;;;;;9.07;4.05;;;18.90;96.20;;;;;;10050003;29;20034;-83
2022/07/13 23:01:37;;;;;;;7.40;3.90;;;18.70;96.20;;;;;;10050663;29;20026;-83
2022/07/13 23:07:14;;;;;;;7.72;3.70;;;18.60;96.80;;;;;;10047617;29;20572;-82
2022/07/13 23:12:52;;;;;;;7.57;3.78;;;18.50;96.80;;;;;;10049044;29;20044;-83
2022/07/13 23:18:31;;;;;;;4.80;3.05;;;18.40;97.20;;;;;;10050236;29;20410;-86
2022/07/13 23:24:08;;;;;;;6.53;3.60;;;18.30;97.20;;;;;;10051941;29;20057;-83
2022/07/13 23:29:09;;;;;;;4.63;3.00;;;18.20;97.50;;;;;;10051202;29;20077;-84
2022/07/13 23:34:10;;;;;;;7.70;3.25;;;18.00;97.80;;;;;;10049963;29;20391;-82
2022/07/13 23:39:11;;;;;;;6.40;2.97;;;17.90;97.90;;;;;;10034313;29;20052;-83
2022/07/13 23:44:12;;;;;;;6.32;3.53;;;17.80;98.50;;;;;;10050715;29;20037;-83
2022/07/13 23:49:13;;;;;;;5.70;3.25;;;17.70;98.70;;;;;;10047350;29;20046;-85
2022/07/13 23:54:13;;;;;;;5.50;3.13;;;17.80;98.60;;;;;;10050099;29;20033;-83
2022/07/13 23:59:14;;;;;;;10.98;3.30;;;17.80;99.10;;;;;;10046967;29;20041;-83
